Time;durP1;ratioP1;P1;durP2;ratioP2;P2;SDS_P1;SDS_P2;PMS_P1;PMS_P2;Temp;Humidity;BMP_temperature;BMP_pressure;BME280_temperature;BME280_humidity;BME280_pressure;Samples;Min_cycle;Max_cycle;Signal;HPM_P1;HPM_P2
2021/12/02 00:02:14;;;;;;;8.68;4.03;;;;;;;;;;5075494;28;20368;-80
2021/12/02 00:04:40;;;;;;;11.10;6.15;;;;;;;;;;5092627;28;20198;-81
2021/12/02 00:07:06;;;;;;;9.75;5.63;;;;;;;;;;5093540;28;20164;-81
2021/12/02 00:09:34;;;;;;;9.63;4.47;;;;;;;;;;5073151;28;20017;-81
2021/12/02 00:12:00;;;;;;;7.10;4.63;;;;;;;;;;5072621;28;20372;-81
2021/12/02 00:14:27;;;;;;;10.30;5.35;;;;;;;;;;5078137;28;20035;-81
2021/12/02 00:22:10;;;;;;;5.35;3.63;;;;;;;;;;5086227;28;20461;-81
2021/12/02 00:24:38;;;;;;;8.25;4.25;;;;;;;;;;5074446;28;20039;-80
2021/12/02 00:27:06;;;;;;;11.48;5.22;;;;;;;;;;5070496;28;20041;-80
2021/12/02 00:29:33;;;;;;;12.48;6.60;;;;;;;;;;5071497;28;20040;-80
2021/12/02 00:32:03;;;;;;;14.07;7.65;;;;;;;;;;5086532;28;20082;-81
2021/12/02 00:34:30;;;;;;;12.75;6.95;;;;;;;;;;5083770;28;20044;-80
2021/12/02 00:36:57;;;;;;;19.77;11.65;;;;;;;;;;5074385;28;20024;-81
2021/12/02 00:39:23;;;;;;;14.30;8.00;;;;;;;;;;5081234;28;20028;-81
2021/12/02 00:41:50;;;;;;;11.75;6.00;;;;;;;;;;5071737;28;20077;-80
2021/12/02 00:44:18;;;;;;;11.57;6.60;;;;;;;;;;5089119;28;20027;-80
2021/12/02 00:46:44;;;;;;;8.60;5.32;;;;;;;;;;5087747;28;20529;-80
2021/12/02 00:49:14;;;;;;;10.05;5.63;;;;;;;;;;5082337;28;20488;-81
2021/12/02 00:51:44;;;;;;;10.20;6.50;;;;;;;;;;5071452;28;20154;-80
2021/12/02 00:54:11;;;;;;;13.90;7.35;;;;;;;;;;5089366;28;20357;-84
2021/12/02 00:56:38;;;;;;;7.70;4.63;;;;;;;;;;5091886;28;20020;-80
2021/12/02 00:59:05;;;;;;;8.55;5.03;;;;;;;;;;5092222;28;20495;-80
2021/12/02 01:01:37;;;;;;;6.95;4.00;;;;;;;;;;5091100;28;20445;-81
2021/12/02 01:04:10;;;;;;;5.90;3.67;;;;;;;;;;5081476;28;20050;-80
2021/12/02 01:06:36;;;;;;;14.38;5.30;;;;;;;;;;5091435;28;20028;-80
2021/12/02 01:09:05;;;;;;;8.88;4.93;;;;;;;;;;5091207;28;20050;-82
2021/12/02 01:11:31;;;;;;;8.43;4.57;;;;;;;;;;5090717;28;20535;-82
2021/12/02 01:13:56;;;;;;;11.85;7.60;;;;;;;;;;5100509;28;20108;-81
2021/12/02 01:16:22;;;;;;;11.63;6.90;;;;;;;;;;5105575;28;20463;-82
2021/12/02 01:18:48;;;;;;;7.97;4.78;;;;;;;;;;5090679;28;20027;-81
2021/12/02 01:21:17;;;;;;;9.88;4.68;;;;;;;;;;5076192;28;20028;-81
2021/12/02 01:23:43;;;;;;;30.05;13.98;;;;;;;;;;5071544;28;20463;-81
2021/12/02 01:26:10;;;;;;;32.72;13.82;;;;;;;;;;5085685;28;20034;-80
2021/12/02 01:28:37;;;;;;;19.35;9.57;;;;;;;;;;5091885;28;20463;-81
2021/12/02 01:31:04;;;;;;;16.60;7.70;;;;;;;;;;5092466;28;20028;-80
2021/12/02 01:33:30;;;;;;;14.52;5.80;;;;;;;;;;5077020;28;20035;-80
2021/12/02 01:35:59;;;;;;;9.30;5.45;;;;;;;;;;5070283;28;20024;-81
2021/12/02 01:38:26;;;;;;;11.13;5.47;;;;;;;;;;5069905;28;20379;-82
2021/12/02 01:40:54;;;;;;;11.02;6.15;;;;;;;;;;5070311;28;20369;-80
2021/12/02 01:43:29;;;;;;;8.52;5.25;;;;;;;;;;5081256;28;20019;-81
2021/12/02 01:45:56;;;;;;;9.90;5.47;;;;;;;;;;5075203;28;20032;-81
2021/12/02 01:48:27;;;;;;;11.45;4.78;;;;;;;;;;5070701;28;20380;-80
2021/12/02 01:51:02;;;;;;;7.65;4.85;;;;;;;;;;5087125;28;20024;-80
2021/12/02 01:53:33;;;;;;;13.63;5.40;;;;;;;;;;5071161;28;20031;-80
2021/12/02 01:56:10;;;;;;;9.27;6.35;;;;;;;;;;5078943;28;20380;-81
2021/12/02 01:58:46;;;;;;;11.93;5.32;;;;;;;;;;5090945;28;20020;-80
2021/12/02 02:01:34;;;;;;;13.40;6.47;;;;;;;;;;5089386;28;20147;-82
2021/12/02 02:04:00;;;;;;;12.52;7.10;;;;;;;;;;5075803;28;20048;-80
2021/12/02 02:06:32;;;;;;;18.15;7.13;;;;;;;;;;5071474;28;20463;-81
2021/12/02 02:08:59;;;;;;;15.13;8.57;;;;;;;;;;5089805;28;20537;-81
2021/12/02 02:11:27;;;;;;;14.60;8.35;;;;;;;;;;5090108;28;20432;-82
2021/12/02 02:13:53;;;;;;;13.13;7.38;;;;;;;;;;5081083;28;20024;-81
2021/12/02 02:16:19;;;;;;;12.55;7.18;;;;;;;;;;5070519;28;20020;-80
2021/12/02 02:18:45;;;;;;;18.25;7.93;;;;;;;;;;5070629;28;20109;-81
2021/12/02 02:21:14;;;;;;;14.82;6.82;;;;;;;;;;5070860;28;20029;-81
2021/12/02 02:23:45;;;;;;;16.02;7.72;;;;;;;;;;5069447;28;20028;-81
2021/12/02 02:26:11;;;;;;;12.75;6.38;;;;;;;;;;5069985;28;20116;-81
2021/12/02 02:28:37;;;;;;;8.90;4.72;;;;;;;;;;5070630;28;20158;-82
2021/12/02 02:31:03;;;;;;;10.38;5.18;;;;;;;;;;5070738;28;20067;-80
2021/12/02 02:33:35;;;;;;;20.95;10.55;;;;;;;;;;5070966;28;20079;-81
2021/12/02 02:36:00;;;;;;;14.07;7.03;;;;;;;;;;5069751;28;20089;-82
2021/12/02 02:38:26;;;;;;;15.23;6.55;;;;;;;;;;5082108;28;20102;-82
2021/12/02 02:40:52;;;;;;;14.18;5.93;;;;;;;;;;5089918;28;20038;-81
2021/12/02 02:43:23;;;;;;;7.30;4.03;;;;;;;;;;5104974;28;20028;-82
2021/12/02 02:45:49;;;;;;;6.93;3.33;;;;;;;;;;5090557;28;20488;-80
2021/12/02 02:48:14;;;;;;;9.70;4.45;;;;;;;;;;5080871;28;20035;-81
2021/12/02 02:50:40;;;;;;;11.40;4.18;;;;;;;;;;5090252;28;20032;-80
2021/12/02 02:53:15;;;;;;;9.02;4.57;;;;;;;;;;5090374;28;20114;-81
2021/12/02 02:55:43;;;;;;;8.57;4.63;;;;;;;;;;5089359;28;20491;-81
2021/12/02 02:58:32;;;;;;;12.15;7.40;;;;;;;;;;5090249;28;20418;-81
2021/12/02 03:09:23;;;;;;;4.65;2.80;;;;;;;;;;5070636;28;20017;-80
2021/12/02 03:11:52;;;;;;;7.05;3.33;;;;;;;;;;5071295;28;20117;-82
2021/12/02 03:14:27;;;;;;;5.65;2.92;;;;;;;;;;5090375;28;20032;-82
2021/12/02 03:16:52;;;;;;;3.63;2.28;;;;;;;;;;5083248;28;20020;-82
2021/12/02 03:19:27;;;;;;;6.88;4.28;;;;;;;;;;5085775;28;20055;-82
2021/12/02 03:21:54;;;;;;;4.32;2.80;;;;;;;;;;5076043;28;20455;-80
2021/12/02 03:24:20;;;;;;;8.85;4.25;;;;;;;;;;5090440;28;20034;-81
2021/12/02 03:26:46;;;;;;;7.35;4.57;;;;;;;;;;5076150;28;20025;-81
2021/12/02 03:29:12;;;;;;;9.85;5.78;;;;;;;;;;5070287;28;20048;-81
2021/12/02 03:31:37;;;;;;;10.10;6.43;;;;;;;;;;5070321;28;20495;-81
2021/12/02 03:34:05;;;;;;;11.25;5.53;;;;;;;;;;5073493;28;20029;-80
2021/12/02 03:36:31;;;;;;;10.80;5.65;;;;;;;;;;5086436;28;20016;-81
2021/12/02 03:38:56;;;;;;;7.90;5.22;;;;;;;;;;5093010;28;20107;-81
2021/12/02 03:41:23;;;;;;;10.10;6.03;;;;;;;;;;5074111;28;20533;-81
2021/12/02 03:43:49;;;;;;;12.13;7.57;;;;;;;;;;5072501;28;20029;-82
2021/12/02 03:46:18;;;;;;;8.65;5.32;;;;;;;;;;5073067;28;20040;-82
2021/12/02 03:48:44;;;;;;;7.88;4.30;;;;;;;;;;5083071;28;20476;-81
2021/12/02 03:51:10;;;;;;;7.13;4.45;;;;;;;;;;5073255;28;20024;-81
2021/12/02 03:53:36;;;;;;;5.68;3.60;;;;;;;;;;5088071;28;20034;-82
2021/12/02 03:56:06;;;;;;;4.22;1.90;;;;;;;;;;5073511;28;20028;-81
2021/12/02 03:58:32;;;;;;;5.03;2.28;;;;;;;;;;5076524;28;20121;-81
2021/12/02 04:00:57;;;;;;;6.82;3.03;;;;;;;;;;5094215;28;20028;-82
2021/12/02 04:03:23;;;;;;;6.75;3.35;;;;;;;;;;5081077;28;20043;-81
2021/12/02 04:05:48;;;;;;;5.50;2.70;;;;;;;;;;5073108;28;20032;-81
2021/12/02 04:08:14;;;;;;;6.25;3.17;;;;;;;;;;5071464;28;20527;-80
2021/12/02 04:10:41;;;;;;;3.90;2.72;;;;;;;;;;5074386;28;20491;-81
2021/12/02 04:13:14;;;;;;;5.03;3.50;;;;;;;;;;5079437;28;20024;-82
2021/12/02 04:15:41;;;;;;;4.65;2.47;;;;;;;;;;5086965;28;20376;-81
2021/12/02 04:18:09;;;;;;;11.00;6.10;;;;;;;;;;5092162;28;20036;-80
2021/12/02 04:20:37;;;;;;;14.05;7.53;;;;;;;;;;5081283;28;20037;-80
2021/12/02 04:23:03;;;;;;;15.02;9.45;;;;;;;;;;5073243;28;20082;-80
2021/12/02 04:25:29;;;;;;;15.43;9.18;;;;;;;;;;5073285;28;20047;-82
2021/12/02 04:27:54;;;;;;;14.27;8.48;;;;;;;;;;5070559;28;20028;-80
2021/12/02 04:30:25;;;;;;;15.18;8.45;;;;;;;;;;5071905;28;20028;-82
2021/12/02 04:32:51;;;;;;;14.57;7.85;;;;;;;;;;5072232;28;20036;-81
2021/12/02 04:35:17;;;;;;;14.70;7.57;;;;;;;;;;5072789;28;20107;-82
2021/12/02 04:37:44;;;;;;;16.45;8.60;;;;;;;;;;5070858;28;20111;-82
2021/12/02 04:40:14;;;;;;;18.05;8.63;;;;;;;;;;5088115;28;20059;-82
2021/12/02 04:42:40;;;;;;;12.60;7.60;;;;;;;;;;5090422;28;20038;-81
2021/12/02 04:45:06;;;;;;;15.82;9.70;;;;;;;;;;5092818;28;20044;-82
2021/12/02 04:47:31;;;;;;;19.00;10.18;;;;;;;;;;5107625;28;20488;-82
2021/12/02 04:49:57;;;;;;;15.68;8.68;;;;;;;;;;5088271;28;20062;-81
2021/12/02 04:52:22;;;;;;;14.18;7.95;;;;;;;;;;5071599;28;20032;-82
2021/12/02 04:54:48;;;;;;;13.75;7.97;;;;;;;;;;5081036;28;20388;-81
2021/12/02 04:57:14;;;;;;;15.57;7.50;;;;;;;;;;5071578;28;20024;-80
2021/12/02 04:59:39;;;;;;;12.35;7.72;;;;;;;;;;5072485;28;20028;-82
2021/12/02 05:02:05;;;;;;;10.43;6.75;;;;;;;;;;5070261;28;20032;-81
2021/12/02 05:04:30;;;;;;;11.85;6.75;;;;;;;;;;5072163;28;20103;-82
2021/12/02 05:06:56;;;;;;;12.77;7.88;;;;;;;;;;5080411;28;20093;-82
2021/12/02 05:09:21;;;;;;;11.15;6.88;;;;;;;;;;5084616;28;20043;-81
2021/12/02 05:11:47;;;;;;;11.75;6.65;;;;;;;;;;5086543;28;20032;-80
2021/12/02 05:14:12;;;;;;;13.40;6.47;;;;;;;;;;5081441;28;20027;-81
2021/12/02 05:16:39;;;;;;;11.73;6.97;;;;;;;;;;5084357;28;20032;-83
2021/12/02 05:19:05;;;;;;;12.63;6.65;;;;;;;;;;5087294;28;20035;-82
2021/12/02 05:21:31;;;;;;;102.90;49.50;;;;;;;;;;5085963;28;20074;-82
2021/12/02 05:23:56;;;;;;;19.90;11.15;;;;;;;;;;5087933;28;20420;-81
2021/12/02 05:26:23;;;;;;;13.35;6.55;;;;;;;;;;5091766;28;20103;-82
2021/12/02 05:28:50;;;;;;;9.70;5.68;;;;;;;;;;5025766;28;20053;-81
2021/12/02 05:31:16;;;;;;;11.40;5.30;;;;;;;;;;5035123;28;20028;-82
2021/12/02 05:33:41;;;;;;;10.23;5.80;;;;;;;;;;5046250;28;20068;-82
2021/12/02 05:36:07;;;;;;;7.60;5.38;;;;;;;;;;5045745;28;20044;-81
2021/12/02 05:38:32;;;;;;;10.82;6.03;;;;;;;;;;5046754;28;20406;-81
2021/12/02 05:40:58;;;;;;;8.80;4.93;;;;;;;;;;5046456;28;20025;-81
2021/12/02 05:43:23;;;;;;;16.20;9.32;;;;;;;;;;5051191;28;20037;-81
2021/12/02 05:45:49;;;;;;;9.23;5.65;;;;;;;;;;5051219;28;20044;-80
2021/12/02 05:48:14;;;;;;;13.07;6.53;;;;;;;;;;5036449;28;20044;-81
2021/12/02 05:50:41;;;;;;;9.98;6.55;;;;;;;;;;5048559;28;20025;-81
2021/12/02 05:53:06;;;;;;;10.93;5.60;;;;;;;;;;5033682;28;20086;-81
2021/12/02 05:55:32;;;;;;;11.27;5.53;;;;;;;;;;5036437;28;20108;-82
2021/12/02 05:57:57;;;;;;;12.25;7.18;;;;;;;;;;5048340;28;20032;-81
2021/12/02 06:00:23;;;;;;;13.13;7.20;;;;;;;;;;5030926;28;20759;-82
2021/12/02 06:02:48;;;;;;;16.20;7.47;;;;;;;;;;5047349;28;20025;-81
2021/12/02 06:05:19;;;;;;;9.02;5.50;;;;;;;;;;5040283;28;20488;-81
2021/12/02 06:07:45;;;;;;;10.30;5.28;;;;;;;;;;5043073;28;20044;-80
2021/12/02 06:10:11;;;;;;;13.40;4.68;;;;;;;;;;5037670;28;20033;-81
2021/12/02 06:12:36;;;;;;;12.57;5.35;;;;;;;;;;5049450;28;20050;-81
2021/12/02 06:15:02;;;;;;;9.27;5.07;;;;;;;;;;5038008;28;20120;-81
2021/12/02 06:17:28;;;;;;;12.10;5.00;;;;;;;;;;5041577;28;20033;-80
2021/12/02 06:19:53;;;;;;;6.15;4.18;;;;;;;;;;5043296;28;20079;-82
2021/12/02 06:22:19;;;;;;;9.20;4.40;;;;;;;;;;5036535;28;20024;-80
2021/12/02 06:27:28;;;;;;;12.55;7.60;;;;;;;;;;5037316;28;20043;-81
2021/12/02 06:29:53;;;;;;;9.10;5.28;;;;;;;;;;5040674;28;20029;-82
2021/12/02 06:32:19;;;;;;;11.15;6.20;;;;;;;;;;5046845;28;20059;-81
2021/12/02 06:34:44;;;;;;;14.93;10.30;;;;;;;;;;5035398;28;20021;-81
2021/12/02 06:37:10;;;;;;;22.20;9.35;;;;;;;;;;5049785;28;20025;-82
2021/12/02 06:39:35;;;;;;;18.52;6.25;;;;;;;;;;5031141;28;20112;-82
2021/12/02 06:42:01;;;;;;;10.20;4.60;;;;;;;;;;5032674;28;20044;-80
2021/12/02 06:44:28;;;;;;;9.15;4.43;;;;;;;;;;5049459;28;20107;-81
2021/12/02 06:46:53;;;;;;;8.90;4.85;;;;;;;;;;5049557;28;20473;-81
2021/12/02 06:49:18;;;;;;;15.75;7.20;;;;;;;;;;5050586;28;20044;-81
2021/12/02 06:51:44;;;;;;;14.48;8.45;;;;;;;;;;5035699;28;20080;-79
2021/12/02 06:54:09;;;;;;;12.88;5.20;;;;;;;;;;5042919;28;20100;-80
2021/12/02 06:56:35;;;;;;;7.20;4.80;;;;;;;;;;5049118;28;20033;-80
2021/12/02 06:59:00;;;;;;;15.02;5.28;;;;;;;;;;5050356;28;20029;-80
2021/12/02 07:01:26;;;;;;;11.98;5.45;;;;;;;;;;5050112;28;20029;-79
2021/12/02 07:03:51;;;;;;;12.20;6.43;;;;;;;;;;5051207;28;20032;-81
2021/12/02 07:06:17;;;;;;;12.30;7.07;;;;;;;;;;5039342;28;20408;-79
2021/12/02 07:08:42;;;;;;;18.98;8.40;;;;;;;;;;5042787;28;20429;-80
2021/12/02 07:11:10;;;;;;;23.40;12.68;;;;;;;;;;5034247;28;20183;-82
2021/12/02 07:13:37;;;;;;;20.60;11.93;;;;;;;;;;5034430;28;20072;-81
2021/12/02 07:16:03;;;;;;;29.00;11.35;;;;;;;;;;5034995;28;20538;-80
2021/12/02 07:18:28;;;;;;;16.20;9.63;;;;;;;;;;5047851;28;20024;-81
2021/12/02 07:20:54;;;;;;;22.83;10.48;;;;;;;;;;5046533;28;20032;-82
2021/12/02 07:23:21;;;;;;;13.80;9.13;;;;;;;;;;5038145;28;20404;-81
2021/12/02 07:25:48;;;;;;;15.27;10.50;;;;;;;;;;5053388;28;20032;-80
2021/12/02 07:28:15;;;;;;;18.92;10.32;;;;;;;;;;5044818;28;20044;-82
2021/12/02 07:30:41;;;;;;;24.38;13.38;;;;;;;;;;5046110;28;20036;-80
2021/12/02 07:33:09;;;;;;;23.13;12.63;;;;;;;;;;5041693;28;20865;-81
2021/12/02 07:35:35;;;;;;;20.95;10.68;;;;;;;;;;5042653;28;20025;-80
2021/12/02 07:38:02;;;;;;;16.73;10.27;;;;;;;;;;5046781;28;20461;-82
2021/12/02 07:40:29;;;;;;;18.80;9.88;;;;;;;;;;5042552;28;20032;-83
2021/12/02 07:42:55;;;;;;;13.07;7.80;;;;;;;;;;5046343;28;20032;-82
2021/12/02 07:45:23;;;;;;;13.63;9.07;;;;;;;;;;5035394;28;20468;-80
2021/12/02 07:47:49;;;;;;;117.13;56.95;;;;;;;;;;5043751;28;20040;-81
2021/12/02 07:50:17;;;;;;;61.38;31.85;;;;;;;;;;5039659;28;20107;-81
2021/12/02 07:52:51;;;;;;;62.30;40.78;;;;;;;;;;5043451;28;20052;-82
2021/12/02 07:55:18;;;;;;;35.08;23.38;;;;;;;;;;5039334;28;20381;-81
2021/12/02 07:57:45;;;;;;;15.18;9.02;;;;;;;;;;5050781;28;20056;-82
2021/12/02 08:00:13;;;;;;;19.35;11.15;;;;;;;;;;5042267;28;20026;-81
2021/12/02 08:02:43;;;;;;;12.55;8.32;;;;;;;;;;5042486;28;20427;-80
2021/12/02 08:05:09;;;;;;;15.60;9.05;;;;;;;;;;5045666;28;20021;-82
2021/12/02 08:07:35;;;;;;;17.45;10.40;;;;;;;;;;5052744;28;20862;-80
2021/12/02 08:10:03;;;;;;;15.15;7.68;;;;;;;;;;5045912;28;20057;-82
2021/12/02 08:12:28;;;;;;;25.83;11.95;;;;;;;;;;5041269;28;20578;-80
2021/12/02 08:14:54;;;;;;;17.48;11.05;;;;;;;;;;5042893;28;20108;-79
2021/12/02 08:17:19;;;;;;;16.75;10.05;;;;;;;;;;5039030;28;20531;-84
2021/12/02 08:19:45;;;;;;;16.98;9.90;;;;;;;;;;5037534;28;20022;-80
2021/12/02 08:22:10;;;;;;;31.63;15.82;;;;;;;;;;5047740;28;20036;-80
2021/12/02 08:24:36;;;;;;;22.38;12.98;;;;;;;;;;5048450;28;20029;-81
2021/12/02 08:27:01;;;;;;;16.17;10.32;;;;;;;;;;5042695;28;20066;-81
2021/12/02 08:29:27;;;;;;;20.95;10.90;;;;;;;;;;5038472;28;20040;-83
2021/12/02 08:31:52;;;;;;;15.30;9.00;;;;;;;;;;5042458;28;20029;-80
2021/12/02 08:34:18;;;;;;;15.98;8.98;;;;;;;;;;5039616;28;20477;-79
2021/12/02 08:36:51;;;;;;;18.60;11.43;;;;;;;;;;5059062;28;20029;-80
2021/12/02 08:39:21;;;;;;;19.90;10.75;;;;;;;;;;5037211;28;20025;-81
2021/12/02 08:41:49;;;;;;;19.90;10.82;;;;;;;;;;5039409;28;20022;-82
2021/12/02 08:44:17;;;;;;;18.15;10.68;;;;;;;;;;5039148;28;20373;-81
2021/12/02 08:46:43;;;;;;;17.67;10.25;;;;;;;;;;5046776;28;20139;-82
2021/12/02 08:49:09;;;;;;;15.10;10.27;;;;;;;;;;5055235;28;20057;-80
2021/12/02 08:51:35;;;;;;;14.32;8.85;;;;;;;;;;5036308;28;20041;-81
2021/12/02 08:54:00;;;;;;;19.75;8.75;;;;;;;;;;5040512;28;20048;-82
2021/12/02 08:56:26;;;;;;;14.07;9.32;;;;;;;;;;5040793;28;20025;-82
2021/12/02 08:58:52;;;;;;;19.55;9.13;;;;;;;;;;5036866;28;20053;-82
2021/12/02 09:01:18;;;;;;;15.02;9.40;;;;;;;;;;5047470;28;20373;-82
2021/12/02 09:03:44;;;;;;;19.10;10.90;;;;;;;;;;5046141;28;20039;-83
2021/12/02 09:06:11;;;;;;;16.63;10.45;;;;;;;;;;5041444;28;20032;-80
2021/12/02 09:08:39;;;;;;;18.67;9.05;;;;;;;;;;5036780;28;20434;-81
2021/12/02 09:11:05;;;;;;;18.58;11.07;;;;;;;;;;5050384;28;20033;-81
2021/12/02 09:13:31;;;;;;;22.70;11.10;;;;;;;;;;5040854;28;20025;-81
2021/12/02 09:15:56;;;;;;;16.50;9.85;;;;;;;;;;5038898;28;20044;-81
2021/12/02 09:18:22;;;;;;;17.20;9.15;;;;;;;;;;5039447;28;20030;-81
2021/12/02 09:20:48;;;;;;;21.73;10.07;;;;;;;;;;5042064;28;20060;-81
2021/12/02 09:23:15;;;;;;;18.00;12.57;;;;;;;;;;5044214;28;20025;-81
2021/12/02 09:25:41;;;;;;;24.25;13.38;;;;;;;;;;5042353;28;20080;-80
2021/12/02 09:28:07;;;;;;;20.17;11.50;;;;;;;;;;5044647;28;20050;-81
2021/12/02 09:30:33;;;;;;;14.48;11.05;;;;;;;;;;5033719;28;20036;-81
2021/12/02 09:32:59;;;;;;;16.33;9.95;;;;;;;;;;5035037;28;20476;-81
2021/12/02 09:35:25;;;;;;;18.92;9.80;;;;;;;;;;5048395;28;20072;-81
2021/12/02 09:37:51;;;;;;;16.70;10.57;;;;;;;;;;5030194;28;20029;-81
2021/12/02 09:40:18;;;;;;;19.83;10.93;;;;;;;;;;5043040;28;20367;-81
2021/12/02 09:42:44;;;;;;;17.30;9.23;;;;;;;;;;5037553;28;20025;-80
2021/12/02 09:45:11;;;;;;;13.90;7.82;;;;;;;;;;5045124;28;20033;-81
2021/12/02 09:47:40;;;;;;;16.33;8.63;;;;;;;;;;5032138;28;20041;-81
2021/12/02 09:50:18;;;;;;;13.45;9.13;;;;;;;;;;5036670;28;20033;-81
2021/12/02 09:52:44;;;;;;;20.45;10.00;;;;;;;;;;5038040;28;20025;-81
2021/12/02 09:55:31;;;;;;;16.27;9.45;;;;;;;;;;5039673;28;20025;-81
2021/12/02 09:57:58;;;;;;;21.75;10.23;;;;;;;;;;5043048;28;20029;-81
2021/12/02 10:01:11;;;;;;;20.42;10.95;;;;;;;;;;5034138;28;20055;-81
2021/12/02 10:03:21;;;;;;;22.20;12.48;;;;;;;;;;5037721;28;20052;-81
2021/12/02 10:05:55;;;;;;;16.13;10.70;;;;;;;;;;5046752;28;20025;-81
2021/12/02 10:08:30;;;;;;;22.42;12.32;;;;;;;;;;5043476;28;20114;-81
2021/12/02 10:10:57;;;;;;;14.43;8.65;;;;;;;;;;5037902;28;20095;-81
2021/12/02 10:13:30;;;;;;;18.88;9.30;;;;;;;;;;5039920;28;20029;-81
2021/12/02 10:16:12;;;;;;;14.68;7.45;;;;;;;;;;5043255;28;20385;-81
2021/12/02 10:21:29;;;;;;;16.80;7.53;;;;;;;;;;5037171;28;20025;-81
2021/12/02 10:24:19;;;;;;;13.60;7.25;;;;;;;;;;5046086;28;20388;-81
2021/12/02 10:26:50;;;;;;;;;;;;;;;;;;5047839;28;20064;-82
2021/12/02 10:29:28;;;;;;;10.27;6.15;;;;;;;;;;5048121;28;20369;-82
2021/12/02 10:32:17;;;;;;;10.55;6.38;;;;;;;;;;5040760;28;20362;-82
2021/12/02 10:34:47;;;;;;;14.30;7.47;;;;;;;;;;5042785;28;20018;-82
2021/12/02 10:37:13;;;;;;;24.75;15.85;;;;;;;;;;5043624;28;20023;-82
2021/12/02 10:39:39;;;;;;;16.52;8.68;;;;;;;;;;5041077;28;20115;-81
2021/12/02 10:42:09;;;;;;;10.65;6.85;;;;;;;;;;5035951;28;20497;-82
2021/12/02 10:44:39;;;;;;;11.85;5.97;;;;;;;;;;5041117;28;20267;-82
2021/12/02 10:47:10;;;;;;;10.30;6.07;;;;;;;;;;5040920;28;20052;-82
2021/12/02 10:49:53;;;;;;;11.88;6.47;;;;;;;;;;5039274;28;20101;-82
2021/12/02 10:52:25;;;;;;;12.80;7.20;;;;;;;;;;5043204;28;20035;-81
2021/12/02 10:55:07;;;;;;;11.43;6.30;;;;;;;;;;5041851;28;20029;-83
2021/12/02 10:57:35;;;;;;;15.52;8.02;;;;;;;;;;5054267;28;20124;-83
2021/12/02 11:00:13;;;;;;;10.30;6.90;;;;;;;;;;5037044;28;20116;-83
2021/12/02 11:02:43;;;;;;;15.30;6.50;;;;;;;;;;5044866;28;20021;-83
2021/12/02 11:05:22;;;;;;;12.80;7.22;;;;;;;;;;5037027;28;20025;-82
2021/12/02 11:08:09;;;;;;;12.50;8.15;;;;;;;;;;5038953;28;20453;-82
2021/12/02 11:10:40;;;;;;;13.93;7.70;;;;;;;;;;5034300;28;20477;-83
2021/12/02 11:13:07;;;;;;;12.40;7.47;;;;;;;;;;5044922;28;20411;-82
2021/12/02 11:15:35;;;;;;;14.80;8.93;;;;;;;;;;5033399;28;20029;-82
2021/12/02 11:18:12;;;;;;;13.95;9.10;;;;;;;;;;5050408;28;20057;-82
2021/12/02 11:20:45;;;;;;;14.90;8.48;;;;;;;;;;5046252;28;20021;-82
2021/12/02 11:23:19;;;;;;;16.15;8.50;;;;;;;;;;5041874;28;20036;-82
2021/12/02 11:26:17;;;;;;;13.77;8.38;;;;;;;;;;5039866;28;20077;-82
2021/12/02 11:28:43;;;;;;;15.32;8.73;;;;;;;;;;5019763;28;20496;-82
2021/12/02 11:31:17;;;;;;;12.98;8.10;;;;;;;;;;5038774;28;20391;-82
2021/12/02 11:33:45;;;;;;;19.65;9.48;;;;;;;;;;5040741;28;20037;-81
2021/12/02 11:36:22;;;;;;;12.80;9.25;;;;;;;;;;5045682;28;20025;-82
2021/12/02 11:38:51;;;;;;;14.32;8.68;;;;;;;;;;5035888;28;20531;-82
2021/12/02 11:41:19;;;;;;;14.70;8.27;;;;;;;;;;5047029;28;20021;-81
2021/12/02 11:43:45;;;;;;;14.80;9.55;;;;;;;;;;5044333;28;20061;-83
2021/12/02 11:46:10;;;;;;;16.08;9.20;;;;;;;;;;5042210;28;20052;-81
2021/12/02 11:48:39;;;;;;;18.42;9.27;;;;;;;;;;5038994;28;20029;-82
2021/12/02 11:51:09;;;;;;;9.65;7.57;;;;;;;;;;5040832;28;20033;-81
2021/12/02 11:53:35;;;;;;;;;;;;;;;;;;5049827;28;20039;-80
2021/12/02 11:56:06;;;;;;;11.23;6.40;;;;;;;;;;5061318;28;20419;-81
2021/12/02 11:58:32;;;;;;;13.23;7.47;;;;;;;;;;5047990;28;20100;-82
2021/12/02 12:00:58;;;;;;;14.20;8.07;;;;;;;;;;5038648;28;20100;-81
2021/12/02 12:03:41;;;;;;;14.70;8.00;;;;;;;;;;5044535;28;20033;-81
2021/12/02 12:06:24;;;;;;;10.85;7.50;;;;;;;;;;5040497;28;20079;-81
2021/12/02 12:08:51;;;;;;;14.20;8.48;;;;;;;;;;5045399;28;20071;-82
2021/12/02 12:11:25;;;;;;;14.48;8.70;;;;;;;;;;5047570;28;20055;-81
2021/12/02 12:13:54;;;;;;;30.20;14.43;;;;;;;;;;5047142;28;20036;-82
2021/12/02 12:16:26;;;;;;;22.98;10.30;;;;;;;;;;5039909;28;20056;-82
2021/12/02 12:18:54;;;;;;;16.23;10.77;;;;;;;;;;5044859;28;20017;-82
2021/12/02 12:21:38;;;;;;;14.13;8.23;;;;;;;;;;5042948;28;20036;-83
2021/12/02 12:24:04;;;;;;;18.80;9.88;;;;;;;;;;5056564;28;20038;-81
2021/12/02 12:26:38;;;;;;;15.05;8.25;;;;;;;;;;5047064;28;20032;-82
2021/12/02 12:29:07;;;;;;;16.05;8.90;;;;;;;;;;5049115;28;20029;-81
2021/12/02 12:31:41;;;;;;;20.15;9.65;;;;;;;;;;5037757;28;20039;-82
2021/12/02 12:34:43;;;;;;;17.67;9.13;;;;;;;;;;5044752;28;20109;-81
2021/12/02 12:40:23;;;;;;;14.10;8.43;;;;;;;;;;5038906;28;20129;-80
2021/12/02 12:42:48;;;;;;;11.95;8.10;;;;;;;;;;5040683;28;20052;-83
2021/12/02 12:45:29;;;;;;;14.00;7.18;;;;;;;;;;5042932;28;20492;-82
2021/12/02 12:48:00;;;;;;;13.88;7.65;;;;;;;;;;5043137;28;20033;-81
2021/12/02 12:50:34;;;;;;;15.50;9.50;;;;;;;;;;5044748;28;20032;-81
2021/12/02 12:53:15;;;;;;;21.17;12.15;;;;;;;;;;5042489;28;20040;-81
2021/12/02 12:55:42;;;;;;;16.33;11.23;;;;;;;;;;5039413;28;20113;-83
2021/12/02 12:58:13;;;;;;;14.60;10.52;;;;;;;;;;5045294;28;20031;-82
2021/12/02 13:00:44;;;;;;;15.68;8.88;;;;;;;;;;5037059;28;20439;-81
2021/12/02 13:03:15;;;;;;;18.42;9.13;;;;;;;;;;5042558;28;20039;-81
2021/12/02 13:05:49;;;;;;;16.10;9.52;;;;;;;;;;5044333;28;20016;-82
2021/12/02 13:08:24;;;;;;;13.73;9.05;;;;;;;;;;5040272;28;20029;-81
2021/12/02 13:11:00;;;;;;;14.95;9.50;;;;;;;;;;5041890;28;20354;-80
2021/12/02 13:13:31;;;;;;;15.18;10.25;;;;;;;;;;5042680;28;20059;-81
2021/12/02 13:16:19;;;;;;;15.35;10.02;;;;;;;;;;5039701;28;20107;-81
2021/12/02 13:18:47;;;;;;;14.80;9.50;;;;;;;;;;5061557;28;20082;-81
2021/12/02 13:21:34;;;;;;;22.15;9.65;;;;;;;;;;5045288;28;20597;-82
2021/12/02 13:24:07;;;;;;;19.30;10.88;;;;;;;;;;5045418;28;20522;-81
2021/12/02 13:26:37;;;;;;;24.75;11.77;;;;;;;;;;5040173;28;20028;-82
2021/12/02 13:29:08;;;;;;;;;;;;;;;;;;5048697;28;20048;-80
2021/12/02 13:31:35;;;;;;;27.35;15.07;;;;;;;;;;5052749;28;19913;-82
2021/12/02 13:34:05;;;;;;;47.42;26.10;;;;;;;;;;5048642;28;20514;-81
2021/12/02 13:36:34;;;;;;;32.92;14.27;;;;;;;;;;5045093;28;20025;-81
2021/12/02 13:39:12;;;;;;;20.88;9.98;;;;;;;;;;5040325;28;20112;-81
2021/12/02 13:41:56;;;;;;;16.90;7.88;;;;;;;;;;5050455;28;20029;-82
2021/12/02 13:44:25;;;;;;;18.00;9.60;;;;;;;;;;5039127;28;20106;-82
2021/12/02 13:46:57;;;;;;;10.77;6.47;;;;;;;;;;5043697;28;20370;-81
2021/12/02 13:49:33;;;;;;;18.58;9.35;;;;;;;;;;5044469;28;20037;-80
2021/12/02 13:52:28;;;;;;;10.80;5.80;;;;;;;;;;5045014;28;20389;-80
2021/12/02 13:55:17;;;;;;;11.65;6.75;;;;;;;;;;5043381;28;20029;-80
2021/12/02 13:57:49;;;;;;;19.00;10.32;;;;;;;;;;5055082;28;20020;-80
2021/12/02 14:00:21;;;;;;;14.38;7.43;;;;;;;;;;5042905;28;20704;-81
2021/12/02 14:02:49;;;;;;;16.73;6.78;;;;;;;;;;5037725;28;20358;-81
2021/12/02 14:05:17;;;;;;;12.68;8.48;;;;;;;;;;5035787;28;20377;-81
2021/12/02 14:07:46;;;;;;;16.58;9.27;;;;;;;;;;5044201;28;20022;-80
2021/12/02 14:10:16;;;;;;;37.83;22.50;;;;;;;;;;5038718;28;20033;-81
2021/12/02 14:12:43;;;;;;;;;;;;;;;;;;5037221;28;20071;-81
2021/12/02 14:15:16;;;;;;;18.83;9.68;;;;;;;;;;5043479;28;20331;-80
2021/12/02 14:17:52;;;;;;;21.90;10.98;;;;;;;;;;5042132;28;20017;-78
2021/12/02 14:20:19;;;;;;;23.25;15.30;;;;;;;;;;5034724;28;20033;-81
2021/12/02 14:22:49;;;;;;;29.55;16.63;;;;;;;;;;5037629;28;20477;-80
2021/12/02 14:25:15;;;;;;;23.98;13.27;;;;;;;;;;5043163;28;20331;-81
2021/12/02 14:27:40;;;;;;;36.38;21.33;;;;;;;;;;5039979;28;20106;-81
2021/12/02 14:30:09;;;;;;;28.52;16.67;;;;;;;;;;5037994;28;20037;-80
2021/12/02 14:32:34;;;;;;;36.53;19.27;;;;;;;;;;5037005;28;20033;-81
2021/12/02 14:35:12;;;;;;;30.65;15.73;;;;;;;;;;5035870;28;20028;-81
2021/12/02 14:37:43;;;;;;;20.70;10.52;;;;;;;;;;5042150;28;20567;-81
2021/12/02 14:40:11;;;;;;;19.60;11.05;;;;;;;;;;5032961;28;20029;-82
2021/12/02 14:42:37;;;;;;;20.13;12.43;;;;;;;;;;5040152;28;20044;-81
2021/12/02 14:45:32;;;;;;;15.73;9.88;;;;;;;;;;5041575;28;20389;-82
2021/12/02 14:47:57;;;;;;;21.50;13.48;;;;;;;;;;5038453;28;20090;-81
2021/12/02 14:50:23;;;;;;;17.67;10.88;;;;;;;;;;5043645;28;20745;-81
2021/12/02 14:52:50;;;;;;;23.35;14.70;;;;;;;;;;5036258;28;20175;-81
2021/12/02 14:55:22;;;;;;;15.82;9.50;;;;;;;;;;5050031;28;20025;-82
2021/12/02 14:57:49;;;;;;;19.13;12.20;;;;;;;;;;5038421;28;20024;-81
2021/12/02 15:00:18;;;;;;;22.83;12.80;;;;;;;;;;5036074;28;20588;-81
2021/12/02 15:02:46;;;;;;;18.25;10.55;;;;;;;;;;5041285;28;20078;-81
2021/12/02 15:05:18;;;;;;;18.95;9.63;;;;;;;;;;5039080;28;20037;-81